createdAt,value
2022-08-28T00:04:42.435Z,16.20
2022-08-28T00:09:45.455Z,14.80
2022-08-28T00:14:48.260Z,15.00
2022-08-28T00:19:52.362Z,13.20
2022-08-28T00:24:55.103Z,13.80
2022-08-28T00:29:59.235Z,11.80
2022-08-28T00:35:03.362Z,12.20
2022-08-28T00:40:07.274Z,12.40
2022-08-28T00:45:10.841Z,14.20
2022-08-28T00:50:17.927Z,12.80
2022-08-28T00:55:22.283Z,12.60
2022-08-28T01:00:27.079Z,12.80
2022-08-28T01:05:31.155Z,13.80
2022-08-28T01:10:34.545Z,9.60
2022-08-28T01:15:37.291Z,12.80
2022-08-28T01:20:44.908Z,8.80
2022-08-28T01:25:49.010Z,12.00
2022-08-28T01:30:51.966Z,10.40
2022-08-28T01:35:54.711Z,12.00
2022-08-28T01:40:59.450Z,11.00
2022-08-28T01:46:04.368Z,10.80
2022-08-28T01:51:07.182Z,11.60
2022-08-28T01:56:13.220Z,11.60
2022-08-28T02:01:17.665Z,10.80
2022-08-28T02:06:20.454Z,10.20
2022-08-28T02:11:24.620Z,9.40
2022-08-28T02:16:27.317Z,11.20
2022-08-28T02:21:30.068Z,9.00
2022-08-28T02:26:34.206Z,8.20
2022-08-28T02:31:37.050Z,11.20
2022-08-28T02:36:41.708Z,8.60
2022-08-28T02:41:45.768Z,9.60
2022-08-28T02:46:48.456Z,9.60
2022-08-28T02:51:51.178Z,12.00
2022-08-28T02:56:55.462Z,7.60
2022-08-28T03:01:58.325Z,8.00
2022-08-28T03:07:00.999Z,9.80
2022-08-28T03:12:05.688Z,8.00
2022-08-28T03:17:08.398Z,8.60
2022-08-28T03:22:11.076Z,9.60
2022-08-28T03:27:15.246Z,7.60
2022-08-28T03:32:18.173Z,8.60
2022-08-28T03:37:21.118Z,7.60
2022-08-28T03:42:25.342Z,7.60
2022-08-28T03:47:29.678Z,11.40
2022-08-28T03:52:32.414Z,9.80
2022-08-28T03:57:36.838Z,8.40
2022-08-28T04:02:40.572Z,10.00
2022-08-28T04:07:43.224Z,8.40
2022-08-28T04:12:47.270Z,10.00
2022-08-28T04:17:50.039Z,9.00
2022-08-28T04:22:55.092Z,8.80
2022-08-28T04:28:00.941Z,7.40
2022-08-28T04:33:03.660Z,8.00
2022-08-28T04:38:06.403Z,9.40
2022-08-28T04:43:10.658Z,6.80
2022-08-28T04:48:14.041Z,7.00
2022-08-28T04:53:18.049Z,9.00
2022-08-28T04:58:23.774Z,9.20
2022-08-28T05:03:26.928Z,7.00
2022-08-28T05:08:29.624Z,8.80
2022-08-28T05:13:34.272Z,7.00
2022-08-28T05:18:36.965Z,7.40
2022-08-28T05:23:39.876Z,7.00
2022-08-28T05:28:44.106Z,6.00
2022-08-28T05:33:47.344Z,7.40
2022-08-28T05:38:50.284Z,7.00
2022-08-28T05:43:55.008Z,7.40
2022-08-28T05:48:57.777Z,7.00
2022-08-28T05:54:00.559Z,7.80
2022-08-28T05:59:06.656Z,7.20
2022-08-28T06:04:11.307Z,6.00
2022-08-28T06:09:15.813Z,7.20
2022-08-28T06:14:20.744Z,7.20
2022-08-28T06:19:24.563Z,6.80
2022-08-28T06:24:27.950Z,6.00
2022-08-28T06:29:31.984Z,6.60
2022-08-28T06:34:34.731Z,6.40
2022-08-28T06:39:38.506Z,5.20
2022-08-28T06:44:42.915Z,6.00
2022-08-28T06:49:45.662Z,6.00
2022-08-28T06:54:55.633Z,6.20
2022-08-28T07:00:00.850Z,5.00
2022-08-28T07:05:03.712Z,5.20
2022-08-28T07:10:07.215Z,7.00
2022-08-28T07:15:12.016Z,7.00
2022-08-28T07:20:15.026Z,8.40
2022-08-28T07:25:17.990Z,8.00
2022-08-28T07:30:23.071Z,8.40
2022-08-28T07:35:26.120Z,6.60
2022-08-28T07:40:29.077Z,4.00
2022-08-28T07:45:33.656Z,5.80
2022-08-28T07:50:36.423Z,8.40
2022-08-28T07:55:39.984Z,6.00
2022-08-28T08:00:44.230Z,6.40
2022-08-28T08:05:52.846Z,5.00
2022-08-28T08:10:59.871Z,6.00
2022-08-28T08:16:06.502Z,8.40
2022-08-28T08:21:11.729Z,6.20
2022-08-28T08:26:15.739Z,7.80
2022-08-28T08:31:21.687Z,4.60
2022-08-28T08:36:26.410Z,6.40
2022-08-28T08:41:30.837Z,7.80
2022-08-28T08:46:36.147Z,6.00
2022-08-28T08:51:42.491Z,4.60
2022-08-28T08:56:45.274Z,6.60
2022-08-28T09:01:53.201Z,6.20
2022-08-28T09:06:59.534Z,6.80
2022-08-28T09:12:04.773Z,6.80
2022-08-28T09:17:08.958Z,7.80
2022-08-28T09:22:11.808Z,5.80
2022-08-28T09:27:23.096Z,6.80
2022-08-28T09:32:31.613Z,9.20
2022-08-28T09:37:34.713Z,6.00
2022-08-28T09:42:54.825Z,7.40
2022-08-28T09:47:59.287Z,8.20
2022-08-28T09:53:16.507Z,5.20
2022-08-28T09:58:19.237Z,8.20
2022-08-28T10:03:26.845Z,9.00
2022-08-28T10:08:40.917Z,9.20
2022-08-28T10:13:45.914Z,9.20
2022-08-28T10:18:52.282Z,6.00
2022-08-28T10:24:13.422Z,7.00
2022-08-28T10:29:23.854Z,8.80
2022-08-28T10:34:35.903Z,10.00
2022-08-28T10:39:48.398Z,11.20
2022-08-28T10:44:52.917Z,8.80
2022-08-28T10:50:01.728Z,11.00
2022-08-28T10:55:06.375Z,9.20
2022-08-28T11:00:12.032Z,8.00
2022-08-28T11:05:17.401Z,5.80
2022-08-28T11:10:40.570Z,9.20
2022-08-28T11:15:53.363Z,7.20
2022-08-28T11:21:08.899Z,5.00
2022-08-28T11:26:12.732Z,4.60
2022-08-28T11:31:33.585Z,7.40
2022-08-28T11:37:03.206Z,8.60
2022-08-28T11:42:32.307Z,5.80
2022-08-28T11:47:43.325Z,7.60
2022-08-28T11:53:17.052Z,7.00
2022-08-28T11:58:21.897Z,6.00
2022-08-28T12:03:29.097Z,5.00
2022-08-28T12:09:11.640Z,7.80
2022-08-28T12:14:43.298Z,7.00
2022-08-28T12:19:55.461Z,6.80
2022-08-28T12:25:00.119Z,7.60
2022-08-28T12:30:02.999Z,6.00
2022-08-28T12:35:17.830Z,5.00
2022-08-28T12:40:23.613Z,4.40
2022-08-28T12:45:28.909Z,6.20
2022-08-28T12:50:35.853Z,9.00
2022-08-28T12:55:38.816Z,5.80
2022-08-28T13:00:50.593Z,6.20
2022-08-28T13:05:59.613Z,8.00
2022-08-28T13:11:02.355Z,4.00
2022-08-28T13:16:05.468Z,5.80
2022-08-28T13:21:35.000Z,4.80
2022-08-28T13:26:38.462Z,4.20
2022-08-28T13:31:42.528Z,9.40
2022-08-28T13:36:48.225Z,4.40
2022-08-28T13:41:53.115Z,6.00
2022-08-28T13:46:56.404Z,5.00
2022-08-28T13:52:01.300Z,4.40
2022-08-28T13:57:05.100Z,6.40
2022-08-28T14:02:25.948Z,5.00
2022-08-28T14:07:30.535Z,6.20
2022-08-28T14:12:33.675Z,5.00
2022-08-28T14:17:36.454Z,4.80
2022-08-28T14:22:40.879Z,6.60
2022-08-28T14:27:43.562Z,5.00
2022-08-28T14:32:46.272Z,5.20
2022-08-28T14:37:50.311Z,6.00
2022-08-28T14:42:53.190Z,4.40
2022-08-28T14:47:55.910Z,4.60
2022-08-28T14:52:59.979Z,5.20
2022-08-28T14:58:02.650Z,5.00
2022-08-28T15:03:05.358Z,6.00
2022-08-28T15:08:09.962Z,5.80
2022-08-28T15:13:15.852Z,4.00
2022-08-28T15:18:18.597Z,5.00
2022-08-28T15:23:22.607Z,4.60
2022-08-28T15:28:25.278Z,4.00
2022-08-28T15:33:27.973Z,5.00
2022-08-28T15:38:52.607Z,5.60
2022-08-28T15:43:55.845Z,4.00
2022-08-28T15:48:58.830Z,5.00
2022-08-28T15:54:03.467Z,5.00
2022-08-28T15:59:06.156Z,5.00
2022-08-28T16:04:08.907Z,5.20
2022-08-28T16:09:13.137Z,5.60
2022-08-28T16:14:20.858Z,5.80
2022-08-28T16:19:23.925Z,4.00
2022-08-28T16:24:28.016Z,3.00
2022-08-28T16:29:30.667Z,5.00
2022-08-28T16:34:33.404Z,3.80
2022-08-28T16:39:37.585Z,4.00
2022-08-28T16:44:40.337Z,4.20
2022-08-28T16:49:43.497Z,3.00
2022-08-28T16:54:48.687Z,3.00
2022-08-28T16:59:53.081Z,4.00
2022-08-28T17:04:58.627Z,3.60
2022-08-28T17:10:02.794Z,2.20
2022-08-28T17:15:06.742Z,2.40
2022-08-28T17:20:28.858Z,3.50
2022-08-28T17:25:32.993Z,4.00
2022-08-28T17:30:35.928Z,4.80
2022-08-28T17:35:42.152Z,3.40
2022-08-28T17:40:46.422Z,3.00
2022-08-28T17:45:49.426Z,5.00
2022-08-28T17:50:52.224Z,4.20
2022-08-28T17:55:56.360Z,4.00
2022-08-28T18:00:59.397Z,3.20
2022-08-28T18:06:02.857Z,4.00
2022-08-28T18:11:07.249Z,4.00
2022-08-28T18:16:10.399Z,4.00
2022-08-28T18:21:13.392Z,4.00
2022-08-28T18:26:18.323Z,3.80
2022-08-28T18:31:21.158Z,3.80
2022-08-28T18:36:24.146Z,5.20
2022-08-28T18:41:35.775Z,4.00
2022-08-28T18:46:48.163Z,4.60
2022-08-28T18:51:51.014Z,4.20
2022-08-28T18:57:01.354Z,4.40
2022-08-28T19:02:07.579Z,5.00
2022-08-28T19:07:10.798Z,4.20
2022-08-28T19:12:15.655Z,4.00
2022-08-28T19:17:21.069Z,3.40
2022-08-28T19:22:24.220Z,4.60
2022-08-28T19:27:28.785Z,5.60
2022-08-28T19:32:31.944Z,4.00
2022-08-28T19:37:34.998Z,5.00
2022-08-28T19:42:39.546Z,4.80
2022-08-28T19:47:42.459Z,4.00
2022-08-28T19:52:45.570Z,4.80
2022-08-28T19:57:49.742Z,4.60
2022-08-28T20:02:52.880Z,5.80
2022-08-28T20:07:55.606Z,5.40
2022-08-28T20:12:59.989Z,4.20
2022-08-28T20:18:02.829Z,5.20
2022-08-28T20:23:05.743Z,4.80
2022-08-28T20:28:11.456Z,4.00
2022-08-28T20:33:14.427Z,3.00
2022-08-28T20:38:17.396Z,5.00
2022-08-28T20:43:21.673Z,3.80
2022-08-28T20:48:25.073Z,3.20
2022-08-28T20:53:37.495Z,4.00
2022-08-28T20:58:42.381Z,4.00
2022-08-28T21:03:45.636Z,2.80
2022-08-28T21:08:49.935Z,5.20
2022-08-28T21:13:53.963Z,4.00
2022-08-28T21:19:14.543Z,4.00
2022-08-28T21:24:18.325Z,3.60
2022-08-28T21:29:22.948Z,4.00
2022-08-28T21:34:25.630Z,4.20
2022-08-28T21:39:28.387Z,5.00
2022-08-28T21:44:32.533Z,5.60
2022-08-28T21:49:35.347Z,4.80
2022-08-28T21:54:41.024Z,4.60
2022-08-28T21:59:45.449Z,4.00
2022-08-28T22:04:48.396Z,3.60
2022-08-28T22:09:52.015Z,4.00
2022-08-28T22:14:56.021Z,4.40
2022-08-28T22:19:58.702Z,3.80
2022-08-28T22:25:01.379Z,3.00
2022-08-28T22:30:06.323Z,4.80
2022-08-28T22:35:10.520Z,4.80
2022-08-28T22:40:13.950Z,4.60
2022-08-28T22:45:18.686Z,3.80
2022-08-28T22:50:21.603Z,4.00
2022-08-28T22:55:24.320Z,3.40
2022-08-28T23:00:30.056Z,3.40
2022-08-28T23:05:33.378Z,4.00
2022-08-28T23:10:57.371Z,4.00
2022-08-28T23:16:01.330Z,4.20
2022-08-28T23:21:07.586Z,3.60
2022-08-28T23:26:12.418Z,4.00
2022-08-28T23:31:16.497Z,3.80
2022-08-28T23:36:19.196Z,3.00
2022-08-28T23:41:22.029Z,4.60
2022-08-28T23:46:26.202Z,4.40
2022-08-28T23:51:29.174Z,4.00
2022-08-28T23:56:31.931Z,3.60
